Time;durP1;ratioP1;P1;durP2;ratioP2;P2;SDS_P1;SDS_P2;PMS_P1;PMS_P2;Temp;Humidity;BMP_temperature;BMP_pressure;BME280_temperature;BME280_humidity;BME280_pressure;Samples;Min_cycle;Max_cycle;Signal;HPM_P1;HPM_P2
2022/02/01 00:02:01;;;;;;;59.97;4.00;;;;;;;;;;5054736;28;20225;-71
2022/02/01 00:04:40;;;;;;;61.22;4.30;;;;;;;;;;5054600;28;20230;-71
2022/02/01 00:07:16;;;;;;;59.92;3.90;;;;;;;;;;5054346;28;20256;-70
2022/02/01 00:09:53;;;;;;;59.80;4.20;;;;;;;;;;5054405;28;20202;-71
2022/02/01 00:12:32;;;;;;;60.75;4.60;;;;;;;;;;5054433;28;20252;-70
2022/02/01 00:15:24;;;;;;;59.80;3.63;;;;;;;;;;5054282;28;20226;-70
2022/02/01 00:18:11;;;;;;;62.60;4.10;;;;;;;;;;5054194;28;20585;-70
2022/02/01 00:33:06;;;;;;;59.33;4.22;;;;;;;;;;5054305;28;20210;-69
2022/02/01 00:37:21;;;;;;;61.65;3.80;;;;;;;;;;5044020;28;20209;-70
2022/02/01 00:39:55;;;;;;;58.40;3.40;;;;;;;;;;5054014;28;20206;-70
2022/02/01 00:42:24;;;;;;;58.75;3.25;;;;;;;;;;5053823;28;20205;-70
2022/02/01 00:44:51;;;;;;;60.40;3.75;;;;;;;;;;5053696;28;20293;-70
2022/02/01 00:47:18;;;;;;;58.75;3.72;;;;;;;;;;5053625;28;20678;-70
2022/02/01 00:49:46;;;;;;;59.17;3.72;;;;;;;;;;5053999;28;20642;-70
2022/02/01 00:52:13;;;;;;;59.08;3.58;;;;;;;;;;5053915;28;20259;-70
2022/02/01 00:54:41;;;;;;;59.15;3.30;;;;;;;;;;5053833;28;20289;-70
2022/02/01 00:57:11;;;;;;;58.90;4.05;;;;;;;;;;5053303;28;20317;-70
2022/02/01 00:59:40;;;;;;;60.38;3.97;;;;;;;;;;5053908;28;20289;-70
2022/02/01 01:02:07;;;;;;;58.97;3.50;;;;;;;;;;5053839;28;20202;-70
2022/02/01 01:04:34;;;;;;;59.63;3.55;;;;;;;;;;5053520;28;20226;-71
2022/02/01 01:07:01;;;;;;;59.65;3.53;;;;;;;;;;5053488;28;20629;-70
2022/02/01 01:09:28;;;;;;;59.95;3.20;;;;;;;;;;5053206;28;20206;-70
2022/02/01 01:11:57;;;;;;;58.78;3.38;;;;;;;;;;5054051;28;20202;-70
2022/02/01 01:45:04;;;;;;;62.70;4.03;;;;;;;;;;5052701;28;20206;-69
2022/02/01 01:53:15;;;;;;;59.90;3.70;;;;;;;;;;5052682;28;20221;-70
2022/02/01 01:55:43;;;;;;;65.03;4.57;;;;;;;;;;5052398;28;20236;-70
2022/02/01 01:58:10;;;;;;;61.70;3.78;;;;;;;;;;5052306;28;20213;-70
2022/02/01 02:00:56;;;;;;;67.20;4.32;;;;;;;;;;5052497;28;20225;-70
2022/02/01 02:03:23;;;;;;;62.67;4.50;;;;;;;;;;5052309;28;20775;-70
2022/02/01 02:05:52;;;;;;;62.15;4.18;;;;;;;;;;5052288;28;20295;-70
2022/02/01 02:08:19;;;;;;;66.72;4.97;;;;;;;;;;5052052;28;20671;-69
2022/02/01 02:10:54;;;;;;;61.70;4.13;;;;;;;;;;5052201;28;20205;-70
2022/02/01 02:16:06;;;;;;;62.92;4.15;;;;;;;;;;5052239;28;20241;-70
2022/02/01 02:18:35;;;;;;;70.03;4.78;;;;;;;;;;5051911;28;20670;-70
2022/02/01 02:21:04;;;;;;;60.72;4.10;;;;;;;;;;5052286;28;20206;-70
2022/02/01 02:23:32;;;;;;;60.85;3.90;;;;;;;;;;5052088;28;20260;-70
2022/02/01 02:26:01;;;;;;;60.92;4.50;;;;;;;;;;5052164;28;20206;-70
2022/02/01 02:28:28;;;;;;;61.83;4.40;;;;;;;;;;5051765;28;20255;-70
2022/02/01 02:30:56;;;;;;;64.57;5.10;;;;;;;;;;5051946;28;20618;-70
2022/02/01 02:33:23;;;;;;;62.88;4.22;;;;;;;;;;5051970;28;20269;-70
2022/02/01 02:35:52;;;;;;;63.97;4.38;;;;;;;;;;5051946;28;20262;-70
2022/02/01 02:38:29;;;;;;;60.78;4.35;;;;;;;;;;5050380;28;20208;-70
2022/02/01 02:41:21;;;;;;;61.95;4.25;;;;;;;;;;5051824;28;20225;-70
2022/02/01 02:46:33;;;;;;;60.55;4.82;;;;;;;;;;5051822;28;20213;-70
2022/02/01 02:49:00;;;;;;;62.25;4.13;;;;;;;;;;5051531;28;20206;-70
2022/02/01 02:51:28;;;;;;;61.50;4.28;;;;;;;;;;5052097;28;20212;-70
2022/02/01 02:53:56;;;;;;;60.05;4.50;;;;;;;;;;5051840;28;20230;-70
2022/02/01 02:56:23;;;;;;;62.72;5.38;;;;;;;;;;5051729;28;20332;-70
2022/02/01 02:58:51;;;;;;;63.00;4.22;;;;;;;;;;5051650;28;20301;-70
2022/02/01 03:01:19;;;;;;;67.75;5.90;;;;;;;;;;5055057;28;20206;-70
2022/02/01 03:03:46;;;;;;;67.65;4.53;;;;;;;;;;5055505;28;20225;-70
2022/02/01 03:06:13;;;;;;;61.65;4.22;;;;;;;;;;5055954;28;20202;-70
2022/02/01 03:08:40;;;;;;;65.32;4.60;;;;;;;;;;5055550;28;20304;-70
2022/02/01 03:11:12;;;;;;;62.30;4.80;;;;;;;;;;5055918;28;20233;-70
2022/02/01 03:13:43;;;;;;;64.65;5.00;;;;;;;;;;5055936;28;20316;-70
2022/02/01 03:16:15;;;;;;;63.85;4.55;;;;;;;;;;5055363;28;20236;-70
2022/02/01 03:21:27;;;;;;;72.22;5.00;;;;;;;;;;5055554;28;20724;-70
2022/02/01 03:23:54;;;;;;;65.80;4.60;;;;;;;;;;5055359;28;20232;-70
2022/02/01 03:26:23;;;;;;;67.40;5.20;;;;;;;;;;5055439;28;20294;-70
2022/02/01 03:28:50;;;;;;;67.15;5.50;;;;;;;;;;5055206;28;20296;-70
2022/02/01 03:31:17;;;;;;;67.38;4.70;;;;;;;;;;5055281;28;20213;-70
2022/02/01 03:33:45;;;;;;;64.78;4.95;;;;;;;;;;5055255;28;20661;-71
2022/02/01 03:36:12;;;;;;;66.75;5.60;;;;;;;;;;5055272;28;20233;-71
2022/02/01 03:38:39;;;;;;;62.80;4.47;;;;;;;;;;5055019;28;20596;-70
2022/02/01 03:41:06;;;;;;;62.90;5.18;;;;;;;;;;5055048;28;20667;-71
2022/02/01 03:43:35;;;;;;;68.15;4.88;;;;;;;;;;5055029;28;20283;-70
2022/02/01 03:46:02;;;;;;;66.00;4.95;;;;;;;;;;5055155;28;20609;-70
2022/02/01 03:48:29;;;;;;;61.60;4.97;;;;;;;;;;5054608;28;20310;-71
2022/02/01 03:50:56;;;;;;;69.50;6.07;;;;;;;;;;5054930;28;20293;-71
2022/02/01 03:53:23;;;;;;;64.88;4.50;;;;;;;;;;5054736;28;20334;-68
2022/02/01 03:55:51;;;;;;;69.82;5.60;;;;;;;;;;5054643;28;20216;-69
2022/02/01 03:58:18;;;;;;;67.78;5.60;;;;;;;;;;5054705;28;20212;-69
2022/02/01 04:00:46;;;;;;;65.03;4.88;;;;;;;;;;5054860;28;20206;-70
2022/02/01 04:03:13;;;;;;;73.20;5.72;;;;;;;;;;5054564;28;20230;-71
2022/02/01 04:05:40;;;;;;;65.95;5.15;;;;;;;;;;5054650;28;20715;-69
2022/02/01 04:08:08;;;;;;;78.88;5.82;;;;;;;;;;5054156;28;20202;-69
2022/02/01 04:10:35;;;;;;;71.60;5.22;;;;;;;;;;5054691;28;20210;-71
2022/02/01 04:13:04;;;;;;;74.93;5.45;;;;;;;;;;5053541;28;20313;-71
2022/02/01 04:15:31;;;;;;;65.25;5.28;;;;;;;;;;5054569;28;20358;-68
2022/02/01 04:17:59;;;;;;;67.72;5.28;;;;;;;;;;5054203;28;20233;-69
2022/02/01 04:20:27;;;;;;;66.50;4.97;;;;;;;;;;5054729;28;20210;-68
2022/02/01 04:22:54;;;;;;;61.88;4.80;;;;;;;;;;5054032;28;20283;-68
2022/02/01 04:25:21;;;;;;;70.65;4.88;;;;;;;;;;5054544;28;20233;-70
2022/02/01 04:27:49;;;;;;;72.65;5.78;;;;;;;;;;5054186;28;20294;-71
2022/02/01 04:30:16;;;;;;;70.90;5.28;;;;;;;;;;5054324;28;20206;-71
2022/02/01 04:32:44;;;;;;;66.50;4.70;;;;;;;;;;5053998;28;20281;-70
2022/02/01 04:35:14;;;;;;;68.13;5.20;;;;;;;;;;5054065;28;20254;-71
2022/02/01 04:37:42;;;;;;;65.68;4.55;;;;;;;;;;5053542;28;20512;-68
2022/02/01 04:40:10;;;;;;;71.53;4.60;;;;;;;;;;5054134;28;20213;-71
2022/02/01 04:42:39;;;;;;;64.60;4.70;;;;;;;;;;5054007;28;20222;-70
2022/02/01 04:45:06;;;;;;;67.05;4.65;;;;;;;;;;5053982;28;20566;-70
2022/02/01 04:47:35;;;;;;;71.97;5.50;;;;;;;;;;5053480;28;20241;-70
2022/02/01 04:50:02;;;;;;;64.03;4.90;;;;;;;;;;5053749;28;20263;-71
2022/02/01 04:52:31;;;;;;;70.65;4.70;;;;;;;;;;5053817;28;20214;-70
2022/02/01 04:54:58;;;;;;;73.95;4.75;;;;;;;;;;5053840;28;20213;-71
2022/02/01 04:57:25;;;;;;;73.95;4.90;;;;;;;;;;5053654;28;20226;-71
2022/02/01 04:59:53;;;;;;;69.35;5.00;;;;;;;;;;5053733;28;20293;-71
2022/02/01 05:02:20;;;;;;;63.17;4.03;;;;;;;;;;5053474;28;20232;-71
2022/02/01 05:04:47;;;;;;;64.13;4.20;;;;;;;;;;5053478;28;20236;-71
2022/02/01 05:07:19;;;;;;;64.53;3.85;;;;;;;;;;5053373;28;20209;-69
2022/02/01 05:09:48;;;;;;;62.00;3.97;;;;;;;;;;5053568;28;20206;-70
2022/02/01 05:12:16;;;;;;;73.63;5.25;;;;;;;;;;5053388;28;20633;-68
2022/02/01 05:14:44;;;;;;;64.70;4.25;;;;;;;;;;5053387;28;20245;-69
2022/02/01 05:17:11;;;;;;;63.40;4.30;;;;;;;;;;5052952;28;20329;-70
2022/02/01 05:19:55;;;;;;;58.53;3.65;;;;;;;;;;5053401;28;20213;-70
2022/02/01 05:22:23;;;;;;;66.07;4.07;;;;;;;;;;5052994;28;20682;-70
2022/02/01 05:24:54;;;;;;;70.68;5.13;;;;;;;;;;5053167;28;20300;-70
2022/02/01 05:27:27;;;;;;;63.67;4.07;;;;;;;;;;5052862;28;20210;-70
2022/02/01 05:29:56;;;;;;;65.20;3.90;;;;;;;;;;5053281;28;20643;-70
2022/02/01 05:32:25;;;;;;;75.93;5.07;;;;;;;;;;5052954;28;20560;-70
2022/02/01 05:34:53;;;;;;;63.40;4.00;;;;;;;;;;5052872;28;20214;-70
2022/02/01 05:37:20;;;;;;;63.17;4.57;;;;;;;;;;5052761;28;20321;-69
2022/02/01 05:39:47;;;;;;;64.00;4.10;;;;;;;;;;5052950;28;20211;-70
2022/02/01 05:42:19;;;;;;;63.80;5.22;;;;;;;;;;5052528;28;20206;-70
2022/02/01 05:44:47;;;;;;;66.57;4.30;;;;;;;;;;5052973;28;20217;-70
2022/02/01 05:47:14;;;;;;;68.28;5.22;;;;;;;;;;5052618;28;20575;-69
2022/02/01 05:49:42;;;;;;;75.53;5.45;;;;;;;;;;5052719;28;20213;-69
2022/02/01 05:52:09;;;;;;;68.30;5.43;;;;;;;;;;5052602;28;20237;-70
2022/02/01 05:54:37;;;;;;;66.13;6.53;;;;;;;;;;5052347;28;20229;-70
2022/02/01 05:57:05;;;;;;;64.05;4.30;;;;;;;;;;5052801;28;20226;-70
2022/02/01 05:59:33;;;;;;;62.40;3.97;;;;;;;;;;5052462;28;20297;-70
2022/02/01 06:02:02;;;;;;;61.83;5.00;;;;;;;;;;5052772;28;20209;-70
2022/02/01 06:04:29;;;;;;;67.05;3.72;;;;;;;;;;5052557;28;20300;-70
2022/02/01 06:06:56;;;;;;;63.03;5.10;;;;;;;;;;5052664;28;20207;-70
2022/02/01 06:09:23;;;;;;;65.65;4.32;;;;;;;;;;5052464;28;20206;-70
2022/02/01 06:11:50;;;;;;;64.45;4.63;;;;;;;;;;5052473;28;20202;-70
2022/02/01 06:14:17;;;;;;;63.67;5.00;;;;;;;;;;5052465;28;20214;-71
2022/02/01 06:16:46;;;;;;;66.50;4.88;;;;;;;;;;5052487;28;20618;-70
2022/02/01 06:19:13;;;;;;;70.50;4.30;;;;;;;;;;5052041;28;20216;-70
2022/02/01 06:21:40;;;;;;;62.55;3.30;;;;;;;;;;5052447;28;20670;-70
2022/02/01 06:24:08;;;;;;;63.42;4.28;;;;;;;;;;5052334;28;20230;-70
2022/02/01 06:26:35;;;;;;;61.67;5.25;;;;;;;;;;5053296;28;20207;-71
2022/02/01 06:29:03;;;;;;;68.35;4.25;;;;;;;;;;5072651;28;20229;-70
2022/02/01 06:31:30;;;;;;;63.20;4.18;;;;;;;;;;5075235;28;20210;-70
2022/02/01 06:33:58;;;;;;;69.00;5.00;;;;;;;;;;5074679;28;20257;-70
2022/02/01 06:36:25;;;;;;;63.90;4.30;;;;;;;;;;5074597;28;20201;-70
2022/02/01 06:38:52;;;;;;;73.32;5.13;;;;;;;;;;5074481;28;20678;-70
2022/02/01 06:41:20;;;;;;;62.10;4.03;;;;;;;;;;5056912;28;20317;-71
2022/02/01 06:43:47;;;;;;;62.10;3.53;;;;;;;;;;5051665;28;20222;-70
2022/02/01 06:46:15;;;;;;;61.70;3.58;;;;;;;;;;5051715;28;20213;-70
2022/02/01 06:48:42;;;;;;;67.38;5.40;;;;;;;;;;5051311;28;20202;-70
2022/02/01 06:51:12;;;;;;;66.85;5.13;;;;;;;;;;5051970;28;20637;-70
2022/02/01 06:53:44;;;;;;;64.00;4.75;;;;;;;;;;5051614;28;20226;-70
2022/02/01 06:56:18;;;;;;;62.47;5.05;;;;;;;;;;5051956;28;20583;-70
2022/02/01 06:58:45;;;;;;;66.97;5.15;;;;;;;;;;5051310;28;20229;-70
2022/02/01 07:01:12;;;;;;;70.38;5.00;;;;;;;;;;5051503;28;20206;-70
2022/02/01 07:03:40;;;;;;;61.63;3.78;;;;;;;;;;5051353;28;20228;-70
2022/02/01 07:06:11;;;;;;;64.95;4.15;;;;;;;;;;5051869;28;20206;-71
2022/02/01 07:08:42;;;;;;;73.40;4.05;;;;;;;;;;5051396;28;20199;-71
2022/02/01 07:11:09;;;;;;;64.00;4.20;;;;;;;;;;5051614;28;20260;-71
2022/02/01 07:13:36;;;;;;;62.60;4.32;;;;;;;;;;5051387;28;20651;-71
2022/02/01 07:16:04;;;;;;;62.17;3.95;;;;;;;;;;5051568;28;20220;-71
2022/02/01 07:18:31;;;;;;;61.67;4.60;;;;;;;;;;5051054;28;20321;-71
2022/02/01 07:20:59;;;;;;;62.83;4.18;;;;;;;;;;5051383;28;20203;-71
2022/02/01 07:23:27;;;;;;;71.28;4.55;;;;;;;;;;5051492;28;20689;-71
2022/02/01 07:25:56;;;;;;;60.72;4.03;;;;;;;;;;5051028;28;20305;-71
2022/02/01 07:28:24;;;;;;;63.95;3.90;;;;;;;;;;5051016;28;20210;-67
2022/02/01 07:30:51;;;;;;;59.28;3.33;;;;;;;;;;5051469;28;20216;-71
2022/02/01 07:33:18;;;;;;;72.95;4.18;;;;;;;;;;5051399;28;20321;-71
2022/02/01 07:35:47;;;;;;;64.80;4.55;;;;;;;;;;5051343;28;20305;-71
2022/02/01 07:38:17;;;;;;;62.42;3.50;;;;;;;;;;5051015;28;20269;-70
2022/02/01 07:40:44;;;;;;;68.38;3.80;;;;;;;;;;5051252;28;20206;-70
2022/02/01 07:43:12;;;;;;;67.80;4.63;;;;;;;;;;5051138;28;20227;-70
2022/02/01 07:45:41;;;;;;;72.97;4.85;;;;;;;;;;5051260;28;20301;-70
2022/02/01 07:48:08;;;;;;;62.15;3.67;;;;;;;;;;5053739;28;20249;-70
2022/02/01 07:50:39;;;;;;;65.72;4.47;;;;;;;;;;5055031;28;20588;-70
2022/02/01 07:53:07;;;;;;;66.43;4.30;;;;;;;;;;5054831;28;20226;-70
2022/02/01 07:55:34;;;;;;;69.72;3.97;;;;;;;;;;5054842;28;20640;-70
2022/02/01 07:58:01;;;;;;;67.13;3.65;;;;;;;;;;5054615;28;20244;-70
2022/02/01 08:00:30;;;;;;;59.40;3.75;;;;;;;;;;5055098;28;20208;-70
2022/02/01 08:02:57;;;;;;;64.22;3.95;;;;;;;;;;5054533;28;20234;-70
2022/02/01 08:05:25;;;;;;;64.25;4.15;;;;;;;;;;5054721;28;20581;-70
2022/02/01 08:07:52;;;;;;;60.55;3.40;;;;;;;;;;5054243;28;20206;-70
2022/02/01 08:10:20;;;;;;;64.57;3.25;;;;;;;;;;5054834;28;20313;-71
2022/02/01 08:18:47;;;;;;;62.10;4.00;;;;;;;;;;5012082;28;20223;-70
2022/02/01 08:21:23;;;;;;;64.10;4.65;;;;;;;;;;5012446;28;20211;-70
2022/02/01 08:23:50;;;;;;;65.88;4.25;;;;;;;;;;5012210;28;20294;-70
2022/02/01 08:26:17;;;;;;;62.22;3.85;;;;;;;;;;5012280;28;20207;-71
2022/02/01 08:28:45;;;;;;;67.43;4.05;;;;;;;;;;5011830;28;20615;-71
2022/02/01 08:31:13;;;;;;;65.07;3.63;;;;;;;;;;5012194;28;20214;-70
2022/02/01 08:33:42;;;;;;;63.40;3.63;;;;;;;;;;5012145;28;20315;-70
2022/02/01 08:36:09;;;;;;;62.50;4.03;;;;;;;;;;5012014;28;20751;-71
2022/02/01 08:38:36;;;;;;;62.95;4.63;;;;;;;;;;5011748;28;20318;-72
2022/02/01 08:41:03;;;;;;;60.85;3.40;;;;;;;;;;5011942;28;20650;-71
2022/02/01 08:43:31;;;;;;;60.50;3.60;;;;;;;;;;5011944;28;20262;-71
2022/02/01 08:45:58;;;;;;;60.20;3.67;;;;;;;;;;5011876;28;20215;-71
2022/02/01 08:48:26;;;;;;;68.88;4.22;;;;;;;;;;5015304;28;20214;-70
2022/02/01 08:50:56;;;;;;;62.50;4.65;;;;;;;;;;5053972;28;20210;-71
2022/02/01 08:53:24;;;;;;;61.30;4.38;;;;;;;;;;5053961;28;20648;-71
2022/02/01 08:56:06;;;;;;;61.60;4.07;;;;;;;;;;5053614;28;20242;-71
2022/02/01 08:58:33;;;;;;;63.45;4.80;;;;;;;;;;5053136;28;20290;-70
2022/02/01 09:01:00;;;;;;;66.50;3.65;;;;;;;;;;5053710;28;20206;-71
2022/02/01 09:03:31;;;;;;;62.40;4.30;;;;;;;;;;5053528;28;20226;-71
2022/02/01 09:05:58;;;;;;;62.03;3.80;;;;;;;;;;5053634;28;20206;-71
2022/02/01 09:08:27;;;;;;;63.97;3.30;;;;;;;;;;5053167;28;20573;-71
2022/02/01 09:10:54;;;;;;;65.82;3.97;;;;;;;;;;5053370;28;20214;-71
2022/02/01 09:13:21;;;;;;;60.42;4.35;;;;;;;;;;5053211;28;20253;-70
2022/02/01 09:15:48;;;;;;;68.80;4.95;;;;;;;;;;5053475;28;20288;-71
2022/02/01 09:18:16;;;;;;;61.45;4.25;;;;;;;;;;5053004;28;20321;-70
2022/02/01 09:20:45;;;;;;;61.05;3.55;;;;;;;;;;5053125;28;20232;-71
2022/02/01 09:23:13;;;;;;;63.47;4.20;;;;;;;;;;5053081;28;20776;-71
2022/02/01 09:25:40;;;;;;;70.60;4.32;;;;;;;;;;5053452;28;20679;-71
2022/02/01 09:28:07;;;;;;;66.47;4.50;;;;;;;;;;5052826;28;20205;-71
2022/02/01 09:30:34;;;;;;;64.80;4.40;;;;;;;;;;5053102;28;20260;-71
2022/02/01 09:33:02;;;;;;;63.72;3.95;;;;;;;;;;5052957;28;20230;-71
2022/02/01 09:35:29;;;;;;;62.03;3.95;;;;;;;;;;5052728;28;20222;-70
2022/02/01 09:37:57;;;;;;;60.53;4.18;;;;;;;;;;5052581;28;20240;-71
2022/02/01 09:40:24;;;;;;;64.63;3.83;;;;;;;;;;5053120;28;20211;-70
2022/02/01 09:42:52;;;;;;;59.35;3.90;;;;;;;;;;5052746;28;20756;-71
2022/02/01 09:45:19;;;;;;;59.28;3.30;;;;;;;;;;5052823;28;20647;-71
2022/02/01 09:47:47;;;;;;;64.38;4.35;;;;;;;;;;5052486;28;20204;-71
2022/02/01 09:50:14;;;;;;;61.20;3.50;;;;;;;;;;5052682;28;20663;-70
2022/02/01 09:52:42;;;;;;;61.85;3.55;;;;;;;;;;5052675;28;20230;-71
2022/02/01 09:55:13;;;;;;;58.75;3.20;;;;;;;;;;5052706;28;20644;-71
2022/02/01 09:57:43;;;;;;;59.65;3.55;;;;;;;;;;5052284;28;20218;-71
2022/02/01 10:00:15;;;;;;;69.32;3.80;;;;;;;;;;5052570;28;20628;-71
2022/02/01 10:02:45;;;;;;;67.15;3.70;;;;;;;;;;5052637;28;20303;-71
2022/02/01 10:05:13;;;;;;;62.95;3.60;;;;;;;;;;5052635;28;20206;-71
2022/02/01 10:07:50;;;;;;;59.60;3.45;;;;;;;;;;5052233;28;20202;-71
2022/02/01 10:10:19;;;;;;;66.20;4.38;;;;;;;;;;5051989;28;20197;-71
2022/02/01 10:12:57;;;;;;;61.45;3.60;;;;;;;;;;5052104;28;20254;-71
2022/02/01 10:15:26;;;;;;;64.05;3.92;;;;;;;;;;5052298;28;20212;-71
2022/02/01 10:17:58;;;;;;;60.55;3.75;;;;;;;;;;5051815;28;20907;-70
2022/02/01 10:20:34;;;;;;;67.60;4.10;;;;;;;;;;5052215;28;20701;-70
2022/02/01 10:23:01;;;;;;;60.03;3.33;;;;;;;;;;5052062;28;20240;-70
2022/02/01 10:25:30;;;;;;;61.50;3.92;;;;;;;;;;5052050;28;20202;-70
2022/02/01 10:27:58;;;;;;;62.85;4.28;;;;;;;;;;5051902;28;20209;-71
2022/02/01 10:30:30;;;;;;;62.93;3.07;;;;;;;;;;5052333;28;20454;-70
2022/02/01 10:33:19;;;;;;;60.57;3.20;;;;;;;;;;5051980;28;20472;-70
2022/02/01 10:35:57;;;;;;;62.30;3.70;;;;;;;;;;5051825;28;20460;-71
2022/02/01 10:38:25;;;;;;;59.73;4.33;;;;;;;;;;5051718;28;20511;-71
2022/02/01 10:40:54;;;;;;;62.37;3.30;;;;;;;;;;5052061;28;20818;-71
2022/02/01 10:43:22;;;;;;;61.23;3.13;;;;;;;;;;5051618;28;20473;-71
2022/02/01 10:45:50;;;;;;;62.72;3.40;;;;;;;;;;5051898;28;20544;-71
2022/02/01 10:48:18;;;;;;;61.60;3.20;;;;;;;;;;5051412;28;20209;-71
2022/02/01 10:50:46;;;;;;;58.67;3.30;;;;;;;;;;5051981;28;20455;-71
2022/02/01 10:53:20;;;;;;;62.88;3.85;;;;;;;;;;5051729;28;20228;-70
2022/02/01 10:55:47;;;;;;;62.15;3.50;;;;;;;;;;5051830;28;20293;-70
2022/02/01 10:58:16;;;;;;;68.45;3.70;;;;;;;;;;5051306;28;20240;-70
2022/02/01 11:00:44;;;;;;;63.00;3.70;;;;;;;;;;5051648;28;20301;-70
2022/02/01 11:03:13;;;;;;;59.10;3.30;;;;;;;;;;5051894;28;20252;-70
2022/02/01 11:05:42;;;;;;;62.53;3.30;;;;;;;;;;5051677;28;20694;-70
2022/02/01 11:08:14;;;;;;;63.85;3.90;;;;;;;;;;5051370;28;20198;-71
2022/02/01 11:10:44;;;;;;;58.08;2.90;;;;;;;;;;5051740;28;20571;-71
2022/02/01 11:13:12;;;;;;;63.38;3.25;;;;;;;;;;5051388;28;20226;-71
2022/02/01 11:15:40;;;;;;;59.40;3.90;;;;;;;;;;5051310;28;20277;-70
2022/02/01 11:18:12;;;;;;;59.92;3.13;;;;;;;;;;5051344;28;20653;-71
2022/02/01 11:20:39;;;;;;;58.78;2.90;;;;;;;;;;5052086;28;20244;-71
2022/02/01 11:23:07;;;;;;;59.13;3.05;;;;;;;;;;5055452;28;20225;-70
2022/02/01 11:25:44;;;;;;;60.40;3.45;;;;;;;;;;5055545;28;20234;-71
2022/02/01 11:28:21;;;;;;;63.15;4.22;;;;;;;;;;5055201;28;20566;-71
2022/02/01 11:30:57;;;;;;;62.92;3.72;;;;;;;;;;5055377;28;20268;-71
2022/02/01 11:33:37;;;;;;;59.13;3.05;;;;;;;;;;5055240;28;20234;-70
2022/02/01 11:36:05;;;;;;;62.40;3.20;;;;;;;;;;5055529;28;20228;-70
2022/02/01 11:38:32;;;;;;;63.25;3.50;;;;;;;;;;5055061;28;20238;-70
2022/02/01 11:41:01;;;;;;;62.60;2.70;;;;;;;;;;5055408;28;20298;-71
2022/02/01 11:43:28;;;;;;;59.70;2.72;;;;;;;;;;5055079;28;20226;-70
2022/02/01 11:46:00;;;;;;;67.63;3.20;;;;;;;;;;5055216;28;20305;-72
2022/02/01 11:48:28;;;;;;;65.53;3.30;;;;;;;;;;5054749;28;20210;-73
2022/02/01 11:50:56;;;;;;;61.75;2.60;;;;;;;;;;5054960;28;20690;-71
2022/02/01 11:53:24;;;;;;;59.22;3.00;;;;;;;;;;5055010;28;20222;-72
2022/02/01 11:55:53;;;;;;;66.97;4.78;;;;;;;;;;5054836;28;20198;-72
2022/02/01 11:58:30;;;;;;;60.60;3.20;;;;;;;;;;5054427;28;20213;-72
2022/02/01 12:00:59;;;;;;;60.47;3.28;;;;;;;;;;5054709;28;20237;-72
2022/02/01 12:03:35;;;;;;;58.58;2.83;;;;;;;;;;5054493;28;20222;-72
2022/02/01 12:06:07;;;;;;;60.55;4.10;;;;;;;;;;5054902;28;20252;-72
2022/02/01 12:08:37;;;;;;;62.40;3.72;;;;;;;;;;5054479;28;20206;-72
2022/02/01 12:11:05;;;;;;;58.47;3.00;;;;;;;;;;5054617;28;20321;-71
2022/02/01 12:13:35;;;;;;;58.28;2.80;;;;;;;;;;5054386;28;20788;-71
2022/02/01 12:16:05;;;;;;;61.45;3.30;;;;;;;;;;5054448;28;20705;-72
2022/02/01 12:18:40;;;;;;;64.45;3.80;;;;;;;;;;5053960;28;20226;-72
2022/02/01 12:21:14;;;;;;;65.82;3.80;;;;;;;;;;5054525;28;20767;-72
2022/02/01 12:23:45;;;;;;;63.38;3.90;;;;;;;;;;5054522;28;20226;-71
2022/02/01 12:26:18;;;;;;;59.95;3.20;;;;;;;;;;5054286;28;20206;-71
2022/02/01 12:28:45;;;;;;;61.22;3.10;;;;;;;;;;5054107;28;20419;-71
2022/02/01 12:31:15;;;;;;;59.45;3.45;;;;;;;;;;5054204;28;20217;-71
2022/02/01 12:33:44;;;;;;;59.63;3.15;;;;;;;;;;5053135;28;20230;-71
2022/02/01 12:36:11;;;;;;;58.88;3.00;;;;;;;;;;5053996;28;20219;-70
2022/02/01 12:38:40;;;;;;;60.05;3.30;;;;;;;;;;5053650;28;20248;-71
2022/02/01 12:41:14;;;;;;;65.57;3.55;;;;;;;;;;5053901;28;20667;-71
2022/02/01 12:43:55;;;;;;;63.05;3.35;;;;;;;;;;5054082;28;20730;-71
2022/02/01 12:46:34;;;;;;;59.63;3.15;;;;;;;;;;5054257;28;20584;-71
2022/02/01 12:49:01;;;;;;;58.60;3.60;;;;;;;;;;5053540;28;20229;-71
2022/02/01 12:51:38;;;;;;;59.85;3.15;;;;;;;;;;5054088;28;20593;-71
2022/02/01 12:54:06;;;;;;;61.75;3.40;;;;;;;;;;5053749;28;20228;-70
2022/02/01 12:56:33;;;;;;;61.78;3.30;;;;;;;;;;5053844;28;20237;-71
2022/02/01 12:59:02;;;;;;;58.83;3.75;;;;;;;;;;5053370;28;20233;-71
2022/02/01 13:01:32;;;;;;;59.58;3.03;;;;;;;;;;5053557;28;20682;-71
2022/02/01 13:03:59;;;;;;;60.55;3.15;;;;;;;;;;5053396;28;20226;-71
2022/02/01 13:06:28;;;;;;;60.20;3.08;;;;;;;;;;5053802;28;20305;-71
2022/02/01 13:14:39;;;;;;;60.15;3.40;;;;;;;;;;5053285;28;20245;-71
2022/02/01 13:17:34;;;;;;;58.15;3.10;;;;;;;;;;5053299;28;20682;-70
2022/02/01 13:20:06;;;;;;;60.05;3.20;;;;;;;;;;5053268;28;20682;-71
2022/02/01 13:22:34;;;;;;;57.90;3.33;;;;;;;;;;5052905;28;20683;-70
2022/02/01 13:25:02;;;;;;;58.47;2.85;;;;;;;;;;5053267;28;20212;-71
2022/02/01 13:27:29;;;;;;;58.80;3.15;;;;;;;;;;5052960;28;20217;-70
2022/02/01 13:30:00;;;;;;;59.20;3.05;;;;;;;;;;5053443;28;20297;-71
2022/02/01 13:32:39;;;;;;;59.75;3.03;;;;;;;;;;5052891;28;20293;-71
2022/02/01 13:35:07;;;;;;;58.22;2.85;;;;;;;;;;5052757;28;20293;-71
2022/02/01 13:37:34;;;;;;;60.95;3.10;;;;;;;;;;5052675;28;20207;-71
2022/02/01 13:40:01;;;;;;;60.22;4.05;;;;;;;;;;5052935;28;20226;-71
2022/02/01 13:42:30;;;;;;;59.83;3.10;;;;;;;;;;5052818;28;20209;-71
2022/02/01 13:44:58;;;;;;;65.47;3.30;;;;;;;;;;5051723;28;20248;-71
2022/02/01 13:47:32;;;;;;;60.25;3.20;;;;;;;;;;5052412;28;20202;-72
2022/02/01 13:50:01;;;;;;;59.75;2.97;;;;;;;;;;5053092;28;20202;-71
2022/02/01 13:52:28;;;;;;;61.47;3.42;;;;;;;;;;5052720;28;20645;-71
2022/02/01 13:54:55;;;;;;;61.75;3.25;;;;;;;;;;5052736;28;20206;-71
2022/02/01 13:57:23;;;;;;;59.83;3.42;;;;;;;;;;5052283;28;20301;-71
2022/02/01 13:59:50;;;;;;;59.83;3.60;;;;;;;;;;5052441;28;20679;-71
2022/02/01 14:02:24;;;;;;;60.25;3.40;;;;;;;;;;5052643;28;20302;-70
2022/02/01 14:04:54;;;;;;;60.50;3.35;;;;;;;;;;5052623;28;20246;-71
2022/02/01 14:07:38;;;;;;;60.53;3.03;;;;;;;;;;5052279;28;20621;-70
2022/02/01 14:10:13;;;;;;;62.20;3.55;;;;;;;;;;5052726;28;20706;-71
2022/02/01 14:26:47;;;;;;;59.05;3.50;;;;;;;;;;5074513;28;20198;-71
2022/02/01 14:32:16;;;;;;;59.22;3.78;;;;;;;;;;5052124;28;20243;-71
2022/02/01 14:34:44;;;;;;;59.45;3.30;;;;;;;;;;5051949;28;20674;-71
2022/02/01 14:37:16;;;;;;;60.92;4.22;;;;;;;;;;5052787;28;20293;-70
2022/02/01 14:45:14;;;;;;;60.60;4.88;;;;;;;;;;5051985;28;20271;-72
2022/02/01 14:47:41;;;;;;;66.60;3.45;;;;;;;;;;5051614;28;20209;-71
2022/02/01 14:50:09;;;;;;;62.20;3.60;;;;;;;;;;5051984;28;20293;-71
2022/02/01 14:52:37;;;;;;;59.53;3.60;;;;;;;;;;5051480;28;20318;-71
2022/02/01 14:55:09;;;;;;;59.63;3.60;;;;;;;;;;5052045;28;20210;-71
2022/02/01 15:06:46;;;;;;;60.45;3.45;;;;;;;;;;5046926;28;20259;-71
2022/02/01 15:12:02;;;;;;;59.40;3.67;;;;;;;;;;5051738;28;20253;-71
2022/02/01 15:14:29;;;;;;;58.38;3.90;;;;;;;;;;5051374;28;20288;-71
2022/02/01 15:16:56;;;;;;;59.25;4.10;;;;;;;;;;5051518;28;20206;-71
2022/02/01 15:19:23;;;;;;;59.00;3.67;;;;;;;;;;5051399;28;20233;-71
2022/02/01 15:21:51;;;;;;;61.28;4.05;;;;;;;;;;5051526;28;20696;-71
2022/02/01 15:24:18;;;;;;;59.85;4.07;;;;;;;;;;5051479;28;20321;-71
2022/02/01 15:26:45;;;;;;;58.65;3.60;;;;;;;;;;5051681;28;20206;-71
2022/02/01 15:29:13;;;;;;;62.72;4.35;;;;;;;;;;5051281;28;20206;-72
2022/02/01 15:31:40;;;;;;;63.42;3.60;;;;;;;;;;5051390;28;20210;-71
2022/02/01 15:34:08;;;;;;;59.50;4.20;;;;;;;;;;5051492;28;20229;-71
2022/02/01 15:36:36;;;;;;;60.67;4.20;;;;;;;;;;5051267;28;20320;-72
2022/02/01 15:58:27;;;;;;;59.92;4.15;;;;;;;;;;5051183;28;20651;-71
2022/02/01 16:01:00;;;;;;;64.70;4.60;;;;;;;;;;5051118;28;20226;-71
2022/02/01 16:03:29;;;;;;;66.10;4.70;;;;;;;;;;5051262;28;20240;-71
2022/02/01 16:05:57;;;;;;;61.70;4.18;;;;;;;;;;5051238;28;20309;-71
2022/02/01 16:08:30;;;;;;;60.72;4.40;;;;;;;;;;5052844;28;20253;-71
2022/02/01 16:10:58;;;;;;;58.65;3.60;;;;;;;;;;5054716;28;20205;-71
2022/02/01 16:13:36;;;;;;;58.85;3.92;;;;;;;;;;5054742;28;20316;-71
2022/02/01 16:16:06;;;;;;;59.95;3.90;;;;;;;;;;5054685;28;20201;-71
2022/02/01 16:18:37;;;;;;;61.38;4.65;;;;;;;;;;5054560;28;20240;-71
2022/02/01 16:21:04;;;;;;;61.75;4.10;;;;;;;;;;5054330;28;20230;-71
2022/02/01 16:23:31;;;;;;;60.45;3.78;;;;;;;;;;5054301;28;20229;-71
2022/02/01 16:25:58;;;;;;;60.20;3.92;;;;;;;;;;5054877;28;20580;-71
2022/02/01 16:28:26;;;;;;;61.10;3.80;;;;;;;;;;5054380;28;20206;-71
2022/02/01 16:30:53;;;;;;;59.17;3.90;;;;;;;;;;5054461;28;20206;-71
2022/02/01 16:33:21;;;;;;;59.83;3.78;;;;;;;;;;5054307;28;20585;-71
2022/02/01 16:35:48;;;;;;;59.00;3.75;;;;;;;;;;5054149;28;20240;-71
2022/02/01 16:38:16;;;;;;;59.47;4.00;;;;;;;;;;5053762;28;20206;-71
2022/02/01 16:40:43;;;;;;;64.05;4.05;;;;;;;;;;5053967;28;20258;-70
2022/02/01 16:43:14;;;;;;;62.55;3.20;;;;;;;;;;5054172;28;20237;-71
2022/02/01 16:45:42;;;;;;;62.05;3.30;;;;;;;;;;5054049;28;20206;-71
2022/02/01 16:48:10;;;;;;;60.72;3.20;;;;;;;;;;5054079;28;20671;-71